sensor_id;sensor_type;location;lat;lon;timestamp;pressure;altitude;pressure_sealevel;temperature;humidity
42385;BME280;28042;43.986;22.860;2023-07-29T00:00:50;100859.69;;;17.45;100.00
42385;BME280;28042;43.986;22.860;2023-07-29T00:03:15;100863.44;;;17.39;100.00
42385;BME280;28042;43.986;22.860;2023-07-29T00:05:41;100847.34;;;17.12;100.00
42385;BME280;28042;43.986;22.860;2023-07-29T00:08:06;100844.78;;;17.11;100.00
42385;BME280;28042;43.986;22.860;2023-07-29T00:10:34;100873.25;;;17.35;100.00
42385;BME280;28042;43.986;22.860;2023-07-29T00:13:00;100866.41;;;17.37;100.00
42385;BME280;28042;43.986;22.860;2023-07-29T00:15:26;100838.22;;;17.23;100.00
42385;BME280;28042;43.986;22.860;2023-07-29T00:17:51;100856.59;;;17.30;100.00
42385;BME280;28042;43.986;22.860;2023-07-29T00:20:17;100838.09;;;17.18;100.00
42385;BME280;28042;43.986;22.860;2023-07-29T00:22:42;100838.44;;;17.10;100.00
42385;BME280;28042;43.986;22.860;2023-07-29T00:25:08;100868.06;;;17.27;100.00
42385;BME280;28042;43.986;22.860;2023-07-29T00:27:34;100875.75;;;17.24;100.00
42385;BME280;28042;43.986;22.860;2023-07-29T00:29:59;100873.94;;;17.18;100.00
42385;BME280;28042;43.986;22.860;2023-07-29T00:32:26;100834.47;;;16.94;100.00
42385;BME280;28042;43.986;22.860;2023-07-29T00:34:52;100861.91;;;17.01;100.00
42385;BME280;28042;43.986;22.860;2023-07-29T00:37:17;100831.41;;;16.73;100.00
42385;BME280;28042;43.986;22.860;2023-07-29T00:39:43;100841.13;;;16.75;100.00
42385;BME280;28042;43.986;22.860;2023-07-29T00:42:09;100869.81;;;16.86;100.00
42385;BME280;28042;43.986;22.860;2023-07-29T00:44:34;100866.81;;;16.87;100.00
42385;BME280;28042;43.986;22.860;2023-07-29T00:47:02;100869.81;;;16.86;100.00
42385;BME280;28042;43.986;22.860;2023-07-29T00:49:28;100827.28;;;16.63;100.00
42385;BME280;28042;43.986;22.860;2023-07-29T00:51:54;100863.91;;;16.82;100.00
42385;BME280;28042;43.986;22.860;2023-07-29T00:54:20;100854.22;;;16.80;100.00
42385;BME280;28042;43.986;22.860;2023-07-29T00:56:45;100831.38;;;16.61;100.00
42385;BME280;28042;43.986;22.860;2023-07-29T00:59:11;100834.16;;;16.73;100.00
42385;BME280;28042;43.986;22.860;2023-07-29T01:01:36;100860.22;;;16.88;100.00
42385;BME280;28042;43.986;22.860;2023-07-29T01:04:02;100824.06;;;16.66;100.00
42385;BME280;28042;43.986;22.860;2023-07-29T01:12:20;100848.19;;;16.71;100.00
42385;BME280;28042;43.986;22.860;2023-07-29T01:17:43;100842.44;;;16.73;100.00
42385;BME280;28042;43.986;22.860;2023-07-29T01:20:14;100814.34;;;16.52;100.00
42385;BME280;28042;43.986;22.860;2023-07-29T01:22:41;100847.94;;;16.73;100.00
42385;BME280;28042;43.986;22.860;2023-07-29T01:25:07;100815.25;;;16.46;100.00
42385;BME280;28042;43.986;22.860;2023-07-29T01:27:32;100848.97;;;16.60;100.00
42385;BME280;28042;43.986;22.860;2023-07-29T01:29:58;100854.09;;;16.56;100.00
42385;BME280;28042;43.986;22.860;2023-07-29T01:37:33;100833.19;;;16.37;100.00
42385;BME280;28042;43.986;22.860;2023-07-29T01:40:00;100837.84;;;16.36;100.00
42385;BME280;28042;43.986;22.860;2023-07-29T01:42:26;100824.75;;;16.32;100.00
42385;BME280;28042;43.986;22.860;2023-07-29T01:44:52;100831.94;;;16.33;100.00
42385;BME280;28042;43.986;22.860;2023-07-29T01:47:17;100852.97;;;16.46;100.00
42385;BME280;28042;43.986;22.860;2023-07-29T01:49:43;100833.66;;;16.34;100.00
42385;BME280;28042;43.986;22.860;2023-07-29T01:52:08;100863.63;;;16.42;100.00
42385;BME280;28042;43.986;22.860;2023-07-29T01:54:34;100872.72;;;16.43;100.00
42385;BME280;28042;43.986;22.860;2023-07-29T01:56:59;100852.00;;;16.22;100.00
42385;BME280;28042;43.986;22.860;2023-07-29T01:59:25;100844.00;;;16.20;100.00
42385;BME280;28042;43.986;22.860;2023-07-29T02:01:50;100870.41;;;16.39;100.00
42385;BME280;28042;43.986;22.860;2023-07-29T02:04:16;100874.16;;;16.45;100.00
42385;BME280;28042;43.986;22.860;2023-07-29T02:06:41;100844.81;;;16.21;100.00
42385;BME280;28042;43.986;22.860;2023-07-29T02:09:06;100839.16;;;16.16;100.00
42385;BME280;28042;43.986;22.860;2023-07-29T02:11:32;100875.47;;;16.43;100.00
42385;BME280;28042;43.986;22.860;2023-07-29T02:13:57;100847.34;;;16.22;100.00
42385;BME280;28042;43.986;22.860;2023-07-29T02:16:23;100876.75;;;16.40;100.00
42385;BME280;28042;43.986;22.860;2023-07-29T02:18:49;100847.75;;;16.26;100.00
42385;BME280;28042;43.986;22.860;2023-07-29T02:21:17;100848.19;;;16.23;100.00
42385;BME280;28042;43.986;22.860;2023-07-29T02:23:43;100878.63;;;16.28;100.00
42385;BME280;28042;43.986;22.860;2023-07-29T02:26:08;100883.66;;;16.31;100.00
42385;BME280;28042;43.986;22.860;2023-07-29T02:28:34;100880.84;;;16.19;100.00
42385;BME280;28042;43.986;22.860;2023-07-29T02:31:16;100879.25;;;16.11;100.00
42385;BME280;28042;43.986;22.860;2023-07-29T02:33:42;100893.31;;;16.03;100.00
42385;BME280;28042;43.986;22.860;2023-07-29T02:36:07;100877.94;;;15.96;100.00
42385;BME280;28042;43.986;22.860;2023-07-29T02:38:33;100871.13;;;15.80;100.00
42385;BME280;28042;43.986;22.860;2023-07-29T02:40:58;100871.13;;;15.80;100.00
42385;BME280;28042;43.986;22.860;2023-07-29T02:43:24;100901.41;;;15.98;100.00
42385;BME280;28042;43.986;22.860;2023-07-29T02:45:49;100879.59;;;15.78;100.00
42385;BME280;28042;43.986;22.860;2023-07-29T02:48:15;100913.66;;;16.02;100.00
42385;BME280;28042;43.986;22.860;2023-07-29T02:50:40;100873.56;;;15.88;100.00
42385;BME280;28042;43.986;22.860;2023-07-29T02:53:05;100899.59;;;16.10;100.00
42385;BME280;28042;43.986;22.860;2023-07-29T02:55:31;100890.25;;;16.11;100.00
42385;BME280;28042;43.986;22.860;2023-07-29T02:57:56;100889.78;;;16.15;100.00
42385;BME280;28042;43.986;22.860;2023-07-29T03:00:22;100872.19;;;15.97;100.00
42385;BME280;28042;43.986;22.860;2023-07-29T03:02:47;100870.09;;;15.99;100.00
42385;BME280;28042;43.986;22.860;2023-07-29T03:05:13;100900.34;;;16.18;100.00
42385;BME280;28042;43.986;22.860;2023-07-29T03:07:38;100867.47;;;16.04;100.00
42385;BME280;28042;43.986;22.860;2023-07-29T03:10:04;100868.06;;;16.06;100.00
42385;BME280;28042;43.986;22.860;2023-07-29T03:12:30;100899.28;;;16.19;100.00
42385;BME280;28042;43.986;22.860;2023-07-29T03:14:56;100858.75;;;15.89;100.00
42385;BME280;28042;43.986;22.860;2023-07-29T03:17:21;100867.16;;;15.94;100.00
42385;BME280;28042;43.986;22.860;2023-07-29T03:19:47;100858.75;;;15.89;100.00
42385;BME280;28042;43.986;22.860;2023-07-29T03:22:12;100856.16;;;15.94;100.00
42385;BME280;28042;43.986;22.860;2023-07-29T03:24:38;100883.66;;;16.13;100.00
42385;BME280;28042;43.986;22.860;2023-07-29T03:27:03;100892.63;;;16.08;100.00
42385;BME280;28042;43.986;22.860;2023-07-29T03:29:29;100886.25;;;15.89;100.00
42385;BME280;28042;43.986;22.860;2023-07-29T03:31:55;100867.81;;;15.71;100.00
42385;BME280;28042;43.986;22.860;2023-07-29T03:34:20;100900.66;;;15.91;100.00
42385;BME280;28042;43.986;22.860;2023-07-29T03:36:46;100902.34;;;15.92;100.00
42385;BME280;28042;43.986;22.860;2023-07-29T03:39:13;100906.22;;;16.03;100.00
42385;BME280;28042;43.986;22.860;2023-07-29T03:41:39;100892.09;;;15.99;100.00
42385;BME280;28042;43.986;22.860;2023-07-29T03:44:04;100904.19;;;16.17;100.00
42385;BME280;28042;43.986;22.860;2023-07-29T03:46:31;100913.94;;;16.31;100.00
42385;BME280;28042;43.986;22.860;2023-07-29T03:48:56;100917.16;;;16.28;100.00
42385;BME280;28042;43.986;22.860;2023-07-29T03:51:22;100914.84;;;16.61;100.00
42385;BME280;28042;43.986;22.860;2023-07-29T03:53:49;100880.13;;;17.02;100.00
42385;BME280;28042;43.986;22.860;2023-07-29T03:56:15;100899.91;;;17.88;100.00
42385;BME280;28042;43.986;22.860;2023-07-29T03:58:40;100896.75;;;18.59;100.00
42385;BME280;28042;43.986;22.860;2023-07-29T04:01:06;100898.25;;;19.24;100.00
42385;BME280;28042;43.986;22.860;2023-07-29T04:03:33;100882.38;;;19.87;96.63
42385;BME280;28042;43.986;22.860;2023-07-29T04:05:59;100874.81;;;20.65;91.81
42385;BME280;28042;43.986;22.860;2023-07-29T04:08:24;100873.56;;;21.04;83.87
42385;BME280;28042;43.986;22.860;2023-07-29T04:10:50;100873.81;;;21.30;82.08
42385;BME280;28042;43.986;22.860;2023-07-29T04:13:16;100892.16;;;21.31;81.03
42385;BME280;28042;43.986;22.860;2023-07-29T04:15:41;100877.84;;;21.17;80.68
42385;BME280;28042;43.986;22.860;2023-07-29T04:18:07;100895.75;;;21.63;79.55
42385;BME280;28042;43.986;22.860;2023-07-29T04:20:32;100866.72;;;21.81;77.23
42385;BME280;28042;43.986;22.860;2023-07-29T04:22:59;100866.19;;;22.42;75.53
42385;BME280;28042;43.986;22.860;2023-07-29T04:25:24;100867.66;;;22.70;72.21
42385;BME280;28042;43.986;22.860;2023-07-29T04:27:49;100887.53;;;23.55;70.12
42385;BME280;28042;43.986;22.860;2023-07-29T04:30:15;100863.19;;;24.11;66.51
42385;BME280;28042;43.986;22.860;2023-07-29T04:32:40;100888.25;;;24.86;63.35
42385;BME280;28042;43.986;22.860;2023-07-29T04:35:08;100886.91;;;25.23;62.06
42385;BME280;28042;43.986;22.860;2023-07-29T04:37:33;100869.72;;;25.74;60.64
42385;BME280;28042;43.986;22.860;2023-07-29T04:39:59;100891.66;;;26.38;58.15
42385;BME280;28042;43.986;22.860;2023-07-29T04:42:24;100860.44;;;26.50;56.29
42385;BME280;28042;43.986;22.860;2023-07-29T04:44:50;100864.81;;;26.56;55.03
42385;BME280;28042;43.986;22.860;2023-07-29T04:47:15;100880.69;;;27.03;54.71
42385;BME280;28042;43.986;22.860;2023-07-29T04:49:41;100874.19;;;27.41;52.79
42385;BME280;28042;43.986;22.860;2023-07-29T04:52:06;100872.69;;;27.95;50.93
42385;BME280;28042;43.986;22.860;2023-07-29T04:54:32;100893.72;;;28.38;48.67
42385;BME280;28042;43.986;22.860;2023-07-29T04:56:57;100868.22;;;27.61;49.90
42385;BME280;28042;43.986;22.860;2023-07-29T04:59:23;100894.47;;;27.84;49.95
42385;BME280;28042;43.986;22.860;2023-07-29T05:01:49;100875.09;;;28.15;49.25
42385;BME280;28042;43.986;22.860;2023-07-29T05:04:14;100886.13;;;27.65;49.60
42385;BME280;28042;43.986;22.860;2023-07-29T05:06:40;100896.78;;;28.23;49.52
42385;BME280;28042;43.986;22.860;2023-07-29T05:09:15;100877.06;;;28.01;48.61
42385;BME280;28042;43.986;22.860;2023-07-29T05:11:41;100902.19;;;28.06;48.72
42385;BME280;28042;43.986;22.860;2023-07-29T05:14:07;100880.50;;;27.98;47.88
42385;BME280;28042;43.986;22.860;2023-07-29T05:16:34;100880.59;;;28.20;47.97
42385;BME280;28042;43.986;22.860;2023-07-29T05:18:59;100887.28;;;28.52;46.50
42385;BME280;28042;43.986;22.860;2023-07-29T05:21:24;100875.22;;;28.87;46.00
42385;BME280;28042;43.986;22.860;2023-07-29T05:23:50;100900.31;;;28.01;47.32
42385;BME280;28042;43.986;22.860;2023-07-29T05:26:15;100900.44;;;28.10;46.96
42385;BME280;28042;43.986;22.860;2023-07-29T05:28:41;100909.28;;;28.17;47.78
42385;BME280;28042;43.986;22.860;2023-07-29T05:31:06;100904.38;;;28.78;46.11
42385;BME280;28042;43.986;22.860;2023-07-29T05:33:32;100909.66;;;28.93;45.78
42385;BME280;28042;43.986;22.860;2023-07-29T05:35:57;100904.38;;;28.91;45.31
42385;BME280;28042;43.986;22.860;2023-07-29T05:38:23;100895.97;;;28.64;45.90
42385;BME280;28042;43.986;22.860;2023-07-29T05:40:49;100920.50;;;29.44;43.88
42385;BME280;28042;43.986;22.860;2023-07-29T05:43:14;100918.13;;;29.74;44.50
42385;BME280;28042;43.986;22.860;2023-07-29T05:45:40;100916.13;;;30.05;42.77
42385;BME280;28042;43.986;22.860;2023-07-29T05:48:05;100913.47;;;30.40;41.81
42385;BME280;28042;43.986;22.860;2023-07-29T05:50:31;100927.53;;;30.00;42.13
42385;BME280;28042;43.986;22.860;2023-07-29T05:52:56;100929.97;;;30.16;41.71
42385;BME280;28042;43.986;22.860;2023-07-29T05:55:22;100924.47;;;30.10;42.33
42385;BME280;28042;43.986;22.860;2023-07-29T05:57:47;100919.75;;;30.28;41.91
42385;BME280;28042;43.986;22.860;2023-07-29T06:00:13;100910.84;;;29.73;42.68
42385;BME280;28042;43.986;22.860;2023-07-29T06:02:38;100904.56;;;29.76;42.04
42385;BME280;28042;43.986;22.860;2023-07-29T06:05:06;100934.81;;;29.34;44.03
42385;BME280;28042;43.986;22.860;2023-07-29T06:07:32;100907.34;;;29.09;44.52
42385;BME280;28042;43.986;22.860;2023-07-29T06:09:59;100928.09;;;29.80;43.63
42385;BME280;28042;43.986;22.860;2023-07-29T06:12:24;100923.75;;;29.51;44.02
42385;BME280;28042;43.986;22.860;2023-07-29T06:14:50;100922.47;;;29.58;44.38
42385;BME280;28042;43.986;22.860;2023-07-29T06:17:15;100893.94;;;30.04;42.91
42385;BME280;28042;43.986;22.860;2023-07-29T06:19:41;100916.44;;;30.92;42.01
42385;BME280;28042;43.986;22.860;2023-07-29T06:22:06;100897.09;;;31.34;41.15
42385;BME280;28042;43.986;22.860;2023-07-29T06:24:32;100911.00;;;31.56;39.18
42385;BME280;28042;43.986;22.860;2023-07-29T06:26:58;100922.69;;;29.92;42.90
42385;BME280;28042;43.986;22.860;2023-07-29T06:29:23;100904.53;;;30.38;41.93
42385;BME280;28042;43.986;22.860;2023-07-29T06:31:49;100899.31;;;30.62;40.90
42385;BME280;28042;43.986;22.860;2023-07-29T06:34:17;100918.25;;;30.71;40.37
42385;BME280;28042;43.986;22.860;2023-07-29T06:36:42;100899.03;;;30.90;41.08
42385;BME280;28042;43.986;22.860;2023-07-29T06:39:08;100902.53;;;30.30;41.32
42385;BME280;28042;43.986;22.860;2023-07-29T06:41:33;100931.25;;;30.09;41.42
42385;BME280;28042;43.986;22.860;2023-07-29T06:43:58;100907.81;;;29.47;42.50
42385;BME280;28042;43.986;22.860;2023-07-29T06:46:24;100896.63;;;28.47;44.50
42385;BME280;28042;43.986;22.860;2023-07-29T06:48:50;100930.34;;;28.14;47.00
42385;BME280;28042;43.986;22.860;2023-07-29T06:51:15;100901.56;;;27.81;47.14
42385;BME280;28042;43.986;22.860;2023-07-29T06:53:41;100900.38;;;27.50;48.11
42385;BME280;28042;43.986;22.860;2023-07-29T06:56:06;100908.00;;;27.30;47.85
42385;BME280;28042;43.986;22.860;2023-07-29T06:58:31;100893.09;;;27.16;48.60
42385;BME280;28042;43.986;22.860;2023-07-29T07:00:57;100919.78;;;26.90;50.02
42385;BME280;28042;43.986;22.860;2023-07-29T07:03:22;100890.44;;;26.68;50.46
42385;BME280;28042;43.986;22.860;2023-07-29T07:05:48;100908.28;;;26.72;50.49
42385;BME280;28042;43.986;22.860;2023-07-29T07:08:13;100895.56;;;26.80;51.90
42385;BME280;28042;43.986;22.860;2023-07-29T07:10:39;100888.78;;;26.86;50.35
42385;BME280;28042;43.986;22.860;2023-07-29T07:13:04;100918.19;;;26.84;51.04
42385;BME280;28042;43.986;22.860;2023-07-29T07:15:30;100894.97;;;27.02;51.28
42385;BME280;28042;43.986;22.860;2023-07-29T07:17:56;100921.25;;;27.06;51.02
42385;BME280;28042;43.986;22.860;2023-07-29T07:20:21;100893.84;;;27.22;52.29
42385;BME280;28042;43.986;22.860;2023-07-29T07:22:46;100913.63;;;27.63;51.86
42385;BME280;28042;43.986;22.860;2023-07-29T07:25:12;100918.91;;;27.13;51.49
42385;BME280;28042;43.986;22.860;2023-07-29T07:27:37;100897.31;;;26.95;53.38
42385;BME280;28042;43.986;22.860;2023-07-29T07:30:03;100924.81;;;27.30;51.89
42385;BME280;28042;43.986;22.860;2023-07-29T07:32:29;100912.75;;;27.63;51.23
42385;BME280;28042;43.986;22.860;2023-07-29T07:34:54;100891.47;;;27.48;51.36
42385;BME280;28042;43.986;22.860;2023-07-29T07:37:20;100919.97;;;27.17;51.59
42385;BME280;28042;43.986;22.860;2023-07-29T07:39:45;100902.41;;;27.30;51.30
42385;BME280;28042;43.986;22.860;2023-07-29T07:42:10;100885.19;;;27.37;52.00
42385;BME280;28042;43.986;22.860;2023-07-29T07:44:36;100912.28;;;27.42;50.85
42385;BME280;28042;43.986;22.860;2023-07-29T07:47:01;100909.75;;;27.59;50.44
42385;BME280;28042;43.986;22.860;2023-07-29T07:49:27;100907.75;;;27.78;49.83
42385;BME280;28042;43.986;22.860;2023-07-29T07:51:52;100878.16;;;27.72;49.05
42385;BME280;28042;43.986;22.860;2023-07-29T07:54:17;100881.72;;;27.59;50.10
42385;BME280;28042;43.986;22.860;2023-07-29T07:56:43;100910.47;;;27.97;49.42
42385;BME280;28042;43.986;22.860;2023-07-29T07:59:08;100907.16;;;27.95;50.46
42385;BME280;28042;43.986;22.860;2023-07-29T08:01:40;100894.09;;;28.18;48.92
42385;BME280;28042;43.986;22.860;2023-07-29T08:04:06;100899.84;;;28.40;48.36
42385;BME280;28042;43.986;22.860;2023-07-29T08:06:32;100892.25;;;28.55;48.82
42385;BME280;28042;43.986;22.860;2023-07-29T08:08:58;100896.25;;;28.90;47.72
42385;BME280;28042;43.986;22.860;2023-07-29T08:11:24;100871.56;;;29.00;46.35
42385;BME280;28042;43.986;22.860;2023-07-29T08:13:49;100865.47;;;29.21;46.77
42385;BME280;28042;43.986;22.860;2023-07-29T08:16:15;100866.09;;;29.40;46.21
42385;BME280;28042;43.986;22.860;2023-07-29T08:18:40;100870.44;;;29.69;45.92
42385;BME280;28042;43.986;22.860;2023-07-29T08:21:06;100863.91;;;29.82;46.56
42385;BME280;28042;43.986;22.860;2023-07-29T08:23:33;100868.25;;;29.97;45.34
42385;BME280;28042;43.986;22.860;2023-07-29T08:26:01;100862.78;;;29.92;44.85
42385;BME280;28042;43.986;22.860;2023-07-29T08:28:29;100875.50;;;30.20;44.64
42385;BME280;28042;43.986;22.860;2023-07-29T08:30:55;100881.03;;;30.34;44.84
42385;BME280;28042;43.986;22.860;2023-07-29T08:33:21;100849.53;;;30.32;43.96
42385;BME280;28042;43.986;22.860;2023-07-29T08:35:46;100870.63;;;30.43;45.12
42385;BME280;28042;43.986;22.860;2023-07-29T08:38:12;100870.44;;;30.48;43.93
42385;BME280;28042;43.986;22.860;2023-07-29T08:40:42;100857.16;;;30.40;42.52
42385;BME280;28042;43.986;22.860;2023-07-29T08:43:08;100874.38;;;30.30;43.11
42385;BME280;28042;43.986;22.860;2023-07-29T08:45:35;100851.16;;;30.16;43.31
42385;BME280;28042;43.986;22.860;2023-07-29T08:48:07;100842.03;;;30.10;43.34
42385;BME280;28042;43.986;22.860;2023-07-29T08:50:35;100843.91;;;30.40;42.63
42385;BME280;28042;43.986;22.860;2023-07-29T08:53:04;100846.44;;;30.42;43.91
42385;BME280;28042;43.986;22.860;2023-07-29T08:55:31;100862.19;;;30.60;41.61
42385;BME280;28042;43.986;22.860;2023-07-29T08:57:58;100857.59;;;30.73;41.36
42385;BME280;28042;43.986;22.860;2023-07-29T09:00:24;100854.63;;;30.70;41.31
42385;BME280;28042;43.986;22.860;2023-07-29T09:02:50;100866.03;;;30.73;41.71
42385;BME280;28042;43.986;22.860;2023-07-29T09:05:16;100826.94;;;30.89;41.37
42385;BME280;28042;43.986;22.860;2023-07-29T09:07:42;100859.59;;;31.42;39.93
42385;BME280;28042;43.986;22.860;2023-07-29T09:10:09;100864.34;;;31.67;39.61
42385;BME280;28042;43.986;22.860;2023-07-29T09:12:38;100860.88;;;31.62;39.32
42385;BME280;28042;43.986;22.860;2023-07-29T09:15:04;100839.38;;;31.31;39.44
42385;BME280;28042;43.986;22.860;2023-07-29T09:17:32;100858.09;;;31.44;38.96
42385;BME280;28042;43.986;22.860;2023-07-29T09:19:58;100857.22;;;31.61;37.76
42385;BME280;28042;43.986;22.860;2023-07-29T09:22:23;100839.69;;;31.47;37.76
42385;BME280;28042;43.986;22.860;2023-07-29T09:24:51;100818.78;;;31.48;37.67
42385;BME280;28042;43.986;22.860;2023-07-29T09:27:28;100852.19;;;31.93;37.23
42385;BME280;28042;43.986;22.860;2023-07-29T09:29:57;100842.84;;;32.01;37.05
42385;BME280;28042;43.986;22.860;2023-07-29T09:32:24;100850.75;;;32.16;36.46
42385;BME280;28042;43.986;22.860;2023-07-29T09:34:50;100849.19;;;32.36;35.90
42385;BME280;28042;43.986;22.860;2023-07-29T09:37:17;100837.06;;;32.56;36.26
42385;BME280;28042;43.986;22.860;2023-07-29T09:39:45;100837.81;;;32.95;34.66
42385;BME280;28042;43.986;22.860;2023-07-29T09:42:17;100810.66;;;33.03;35.32
42385;BME280;28042;43.986;22.860;2023-07-29T09:44:42;100831.66;;;33.14;34.69
42385;BME280;28042;43.986;22.860;2023-07-29T09:47:08;100813.41;;;32.90;34.44
42385;BME280;28042;43.986;22.860;2023-07-29T09:49:35;100822.63;;;33.00;35.24
42385;BME280;28042;43.986;22.860;2023-07-29T09:52:01;100827.84;;;33.10;34.34
42385;BME280;28042;43.986;22.860;2023-07-29T09:54:30;100803.75;;;32.92;34.42
42385;BME280;28042;43.986;22.860;2023-07-29T09:56:55;100825.53;;;33.12;34.68
42385;BME280;28042;43.986;22.860;2023-07-29T09:59:23;100827.47;;;33.32;34.11
42385;BME280;28042;43.986;22.860;2023-07-29T10:01:49;100822.72;;;33.45;33.83
42385;BME280;28042;43.986;22.860;2023-07-29T10:04:15;100794.69;;;33.19;33.26
42385;BME280;28042;43.986;22.860;2023-07-29T10:06:41;100815.88;;;33.46;34.76
42385;BME280;28042;43.986;22.860;2023-07-29T10:09:09;100803.03;;;33.36;34.88
42385;BME280;28042;43.986;22.860;2023-07-29T10:11:36;100807.25;;;33.42;34.80
42385;BME280;28042;43.986;22.860;2023-07-29T10:14:02;100825.22;;;33.59;33.53
42385;BME280;28042;43.986;22.860;2023-07-29T10:16:28;100796.25;;;33.74;34.19
42385;BME280;28042;43.986;22.860;2023-07-29T10:18:54;100817.94;;;33.82;32.91
42385;BME280;28042;43.986;22.860;2023-07-29T10:21:22;100817.22;;;33.73;33.32
42385;BME280;28042;43.986;22.860;2023-07-29T10:23:49;100787.03;;;33.77;33.09
42385;BME280;28042;43.986;22.860;2023-07-29T10:26:19;100816.13;;;33.53;33.33
42385;BME280;28042;43.986;22.860;2023-07-29T10:28:47;100786.22;;;33.31;33.40
42385;BME280;28042;43.986;22.860;2023-07-29T10:31:15;100775.47;;;33.45;33.18
42385;BME280;28042;43.986;22.860;2023-07-29T10:33:41;100798.66;;;33.51;32.75
42385;BME280;28042;43.986;22.860;2023-07-29T10:36:08;100801.72;;;33.13;32.88
42385;BME280;28042;43.986;22.860;2023-07-29T10:38:34;100769.06;;;33.36;30.37
42385;BME280;28042;43.986;22.860;2023-07-29T10:40:59;100792.78;;;33.23;30.33
42385;BME280;28042;43.986;22.860;2023-07-29T10:45:51;100770.28;;;32.73;32.22
42385;BME280;28042;43.986;22.860;2023-07-29T10:51:26;100797.81;;;32.43;32.31
42385;BME280;28042;43.986;22.860;2023-07-29T10:53:54;100795.38;;;32.74;32.35
42385;BME280;28042;43.986;22.860;2023-07-29T10:56:31;100801.50;;;33.18;31.26
42385;BME280;28042;43.986;22.860;2023-07-29T10:58:59;100800.31;;;33.40;29.92
42385;BME280;28042;43.986;22.860;2023-07-29T11:01:30;100766.50;;;33.56;28.89
42385;BME280;28042;43.986;22.860;2023-07-29T11:09:52;100784.91;;;33.74;29.44
42385;BME280;28042;43.986;22.860;2023-07-29T11:15:26;100782.22;;;32.78;29.44
42385;BME280;28042;43.986;22.860;2023-07-29T11:18:01;100779.06;;;32.59;30.74
42385;BME280;28042;43.986;22.860;2023-07-29T11:20:29;100782.22;;;32.37;31.45
42385;BME280;28042;43.986;22.860;2023-07-29T11:22:56;100780.84;;;32.43;31.17
42385;BME280;28042;43.986;22.860;2023-07-29T11:25:22;100783.84;;;32.88;30.23
42385;BME280;28042;43.986;22.860;2023-07-29T11:27:49;100795.13;;;32.67;29.41
42385;BME280;28042;43.986;22.860;2023-07-29T11:30:16;100784.03;;;33.04;28.65
42385;BME280;28042;43.986;22.860;2023-07-29T11:32:43;100771.28;;;33.10;28.52
42385;BME280;28042;43.986;22.860;2023-07-29T11:35:16;100762.16;;;33.25;26.61
42385;BME280;28042;43.986;22.860;2023-07-29T11:37:44;100754.94;;;33.03;27.22
42385;BME280;28042;43.986;22.860;2023-07-29T11:40:14;100772.81;;;33.07;27.23
42385;BME280;28042;43.986;22.860;2023-07-29T11:42:40;100760.44;;;33.00;27.44
42385;BME280;28042;43.986;22.860;2023-07-29T11:45:06;100768.63;;;33.13;27.41
42385;BME280;28042;43.986;22.860;2023-07-29T11:47:33;100764.81;;;33.09;28.03
42385;BME280;28042;43.986;22.860;2023-07-29T11:50:03;100739.38;;;32.55;28.74
42385;BME280;28042;43.986;22.860;2023-07-29T11:52:34;100736.03;;;32.74;28.72
42385;BME280;28042;43.986;22.860;2023-07-29T11:55:01;100738.53;;;32.55;28.72
42385;BME280;28042;43.986;22.860;2023-07-29T11:57:28;100760.28;;;32.75;28.91
42385;BME280;28042;43.986;22.860;2023-07-29T11:59:54;100740.88;;;32.95;28.92
42385;BME280;28042;43.986;22.860;2023-07-29T12:02:20;100740.00;;;33.15;27.64
42385;BME280;28042;43.986;22.860;2023-07-29T12:04:47;100763.53;;;33.52;27.86
42385;BME280;28042;43.986;22.860;2023-07-29T12:07:14;100729.97;;;33.75;27.10
42385;BME280;28042;43.986;22.860;2023-07-29T12:09:41;100753.13;;;33.89;27.16
42385;BME280;28042;43.986;22.860;2023-07-29T12:12:07;100732.31;;;33.73;26.94
42385;BME280;28042;43.986;22.860;2023-07-29T12:14:34;100745.06;;;33.55;26.86
42385;BME280;28042;43.986;22.860;2023-07-29T12:17:04;100734.13;;;33.32;26.40
42385;BME280;28042;43.986;22.860;2023-07-29T12:19:34;100726.22;;;33.13;26.48
42385;BME280;28042;43.986;22.860;2023-07-29T12:22:01;100724.66;;;33.16;27.34
42385;BME280;28042;43.986;22.860;2023-07-29T12:24:28;100748.50;;;33.27;27.12
42385;BME280;28042;43.986;22.860;2023-07-29T12:26:54;100741.75;;;33.65;27.11
42385;BME280;28042;43.986;22.860;2023-07-29T12:29:19;100715.25;;;33.12;25.87
42385;BME280;28042;43.986;22.860;2023-07-29T12:31:46;100713.91;;;33.42;25.71
42385;BME280;28042;43.986;22.860;2023-07-29T12:34:21;100724.22;;;33.26;25.34
42385;BME280;28042;43.986;22.860;2023-07-29T12:36:49;100734.44;;;33.64;24.97
42385;BME280;28042;43.986;22.860;2023-07-29T12:39:28;100707.06;;;33.43;24.90
42385;BME280;28042;43.986;22.860;2023-07-29T12:41:55;100735.13;;;33.61;24.38
42385;BME280;28042;43.986;22.860;2023-07-29T12:44:35;100733.72;;;33.67;23.83
42385;BME280;28042;43.986;22.860;2023-07-29T12:47:02;100732.31;;;33.61;24.66
42385;BME280;28042;43.986;22.860;2023-07-29T12:49:28;100702.00;;;33.61;24.38
42385;BME280;28042;43.986;22.860;2023-07-29T12:51:55;100705.22;;;33.72;23.96
42385;BME280;28042;43.986;22.860;2023-07-29T12:54:21;100703.31;;;33.64;23.85
42385;BME280;28042;43.986;22.860;2023-07-29T12:56:46;100700.00;;;33.37;23.91
42385;BME280;28042;43.986;22.860;2023-07-29T12:59:12;100724.44;;;33.54;24.54
42385;BME280;28042;43.986;22.860;2023-07-29T13:01:37;100691.25;;;33.30;24.53